Главная страница
METAR-TAF:

METAR-TAF

Аэропорты :

Хитроу

Лондон-Хитроу, Англия

широта: 51-29N, долгота: 000-27W, высота над уровнем моря: 24 м

Текущие метеонаблюдения

Эта сводка был подготовлена 20 минут назад, в 06:50 UTC
Ветер 10 Узел от южный-юго-западный, изменяющийся между южный и западный-юго-западный
Температура 15°C
Влажность 82%
Давление 1019 hPa
Видимость 10 км и более
Сплошная облачность на высоте 3800 фута

METAR: EGLL 170650Z AUTO 20010KT 180V240 9999 OVC038 15/12 Q1019 NOSIG

Время: 08:10 (07:10 UTC)

Прогноз

Эта сводка был подготовлена 2 часа и 16 минут назад, в 04:54 UTC
Прогноз действительный с 17-го 06 UTC до 18-го 12 UTC
Ветер 8 Узел от южный-юго-западный
Видимость 10 км и более
Отдельные облака на высоте 2500 фута
Вероятность 30%
С 18-го 00 UTC до 18-го 05 UTC
Видимость: 6000 м

TAF: EGLL 170454Z 1706/1812 21008KT 9999 SCT025 PROB30 1800/1805 6000

Метеонаблюдения и прогнозы для более 4000 аэропортов (сводки METAR и TAF).

Имеющиеся станции представлены на карте желтыми и красными точками.

Чтобы увидеть название станции, наведите на нее мышь.

Затем щелкните, чтобы увидеть метеонаблюдения и метеопрогнозы.

Управление картой: чтобы увеличить масштаб, щелкните зеленые кнопки с черным крестиком; чтобы уменьшить масштаб, щелкните зеленую кнопку с тире; для просмотра соседних карт щелкайте зеленые стрелки.


METAR-TAF: